createdAt,value
2017-04-26T00:00:57.229Z,3.43
2017-04-26T00:01:55.668Z,4.37
2017-04-26T00:02:54.088Z,4.20
2017-04-26T00:03:52.587Z,4.23
2017-04-26T00:04:51.737Z,4.20
2017-04-26T00:05:50.138Z,3.57
2017-04-26T00:06:49.356Z,3.53
2017-04-26T00:07:47.832Z,3.00
2017-04-26T00:08:46.205Z,3.68
2017-04-26T00:09:44.631Z,3.78
2017-04-26T00:10:43.061Z,3.32
2017-04-26T00:11:41.562Z,3.62
2017-04-26T00:12:40.006Z,2.83
2017-04-26T00:13:38.470Z,3.12
2017-04-26T00:14:37.244Z,2.75
2017-04-26T00:15:35.729Z,2.80
2017-04-26T00:16:34.147Z,2.28
2017-04-26T00:17:32.508Z,3.30
2017-04-26T00:18:31.726Z,3.28
2017-04-26T00:19:30.162Z,3.40
2017-04-26T00:20:29.293Z,3.37
2017-04-26T00:21:27.779Z,3.38
2017-04-26T00:22:26.602Z,3.10
2017-04-26T00:23:25.000Z,3.22
2017-04-26T00:24:23.633Z,2.83
2017-04-26T00:25:22.795Z,3.07
2017-04-26T00:26:21.210Z,2.93
2017-04-26T00:27:19.754Z,2.87
2017-04-26T00:28:18.160Z,7.22
2017-04-26T00:29:16.530Z,3.15
2017-04-26T00:30:14.987Z,3.53
2017-04-26T00:31:14.133Z,3.17
2017-04-26T00:32:12.591Z,3.73
2017-04-26T00:33:11.721Z,3.23
2017-04-26T00:34:10.838Z,3.82
2017-04-26T00:35:09.224Z,3.50
2017-04-26T00:36:07.622Z,3.77
2017-04-26T00:37:05.990Z,3.12
2017-04-26T00:38:04.473Z,3.47
2017-04-26T00:39:02.950Z,4.47
2017-04-26T00:40:02.214Z,20.67
2017-04-26T00:41:01.121Z,3.02
2017-04-26T00:42:00.225Z,3.77
2017-04-26T00:42:58.691Z,3.60
2017-04-26T00:43:57.092Z,9.83
2017-04-26T00:44:55.819Z,5.35
2017-04-26T00:45:54.942Z,6.82
2017-04-26T00:46:53.379Z,14.58
2017-04-26T00:47:51.764Z,4.15
2017-04-26T00:48:50.249Z,4.12
2017-04-26T00:49:48.702Z,3.48
2017-04-26T00:50:47.086Z,3.65
2017-04-26T00:51:45.452Z,16.67
2017-04-26T00:52:43.831Z,6.88
2017-04-26T00:53:42.247Z,5.52
2017-04-26T00:54:40.652Z,4.52
2017-04-26T00:55:39.136Z,4.48
2017-04-26T00:56:37.505Z,12.18
2017-04-26T00:57:35.930Z,3.43
2017-04-26T00:58:34.330Z,4.43
2017-04-26T00:59:32.729Z,4.45
2017-04-26T01:00:31.215Z,5.20
2017-04-26T01:01:29.603Z,9.75
2017-04-26T01:02:28.026Z,4.40
2017-04-26T01:03:26.387Z,8.37
2017-04-26T01:04:24.792Z,3.67
2017-04-26T01:05:23.247Z,3.67
2017-04-26T01:06:21.706Z,3.73
2017-04-26T01:07:20.077Z,3.50
2017-04-26T01:08:18.507Z,4.97
2017-04-26T01:09:17.699Z,7.43
2017-04-26T01:10:16.099Z,4.35
2017-04-26T01:11:14.549Z,3.62
2017-04-26T01:12:13.459Z,8.58
2017-04-26T01:13:11.897Z,4.92
2017-04-26T01:14:11.050Z,4.07
2017-04-26T01:15:09.823Z,4.80
2017-04-26T01:16:11.404Z,5.50
2017-04-26T01:17:09.818Z,4.68
2017-04-26T01:18:08.222Z,5.88
2017-04-26T01:19:06.676Z,5.50
2017-04-26T01:20:05.076Z,4.45
2017-04-26T01:21:03.835Z,7.77
2017-04-26T01:22:03.005Z,5.40
2017-04-26T01:23:01.397Z,11.45
2017-04-26T01:24:00.561Z,5.03
2017-04-26T01:24:59.010Z,5.05
2017-04-26T01:25:57.425Z,5.98
2017-04-26T01:26:56.607Z,7.68
2017-04-26T01:27:55.300Z,4.75
2017-04-26T01:28:53.718Z,5.18
2017-04-26T01:29:52.170Z,5.85
2017-04-26T01:30:50.555Z,5.80
2017-04-26T01:31:49.014Z,5.62
2017-04-26T01:32:47.472Z,5.80
2017-04-26T01:33:45.885Z,6.45
2017-04-26T01:34:44.298Z,6.05
2017-04-26T01:35:42.761Z,5.60
2017-04-26T01:36:41.965Z,7.37
2017-04-26T01:37:40.480Z,6.32
2017-04-26T01:38:38.937Z,6.57
2017-04-26T01:39:37.373Z,7.37
2017-04-26T01:40:35.754Z,5.13
2017-04-26T01:41:34.143Z,4.77
2017-04-26T01:42:32.629Z,5.22
2017-04-26T01:43:31.073Z,4.28
2017-04-26T01:44:29.536Z,5.43
2017-04-26T01:45:27.934Z,4.68
2017-04-26T01:46:26.325Z,4.75
2017-04-26T01:47:24.718Z,4.62
2017-04-26T01:48:23.872Z,4.03
2017-04-26T01:49:22.288Z,4.73
2017-04-26T01:50:20.741Z,4.35
2017-04-26T01:51:19.879Z,4.83
2017-04-26T01:52:18.278Z,5.83
2017-04-26T01:53:16.674Z,4.95
2017-04-26T01:54:15.443Z,9.17
2017-04-26T01:55:14.637Z,4.58
2017-04-26T01:56:13.063Z,6.27
2017-04-26T01:57:11.463Z,5.00
2017-04-26T01:58:10.612Z,4.90
2017-04-26T01:59:09.332Z,4.60
2017-04-26T02:00:07.766Z,4.88
2017-04-26T02:01:06.631Z,4.93
2017-04-26T02:02:05.102Z,4.73
2017-04-26T02:03:03.627Z,4.70
2017-04-26T02:04:02.325Z,5.28
2017-04-26T02:05:00.806Z,4.48
2017-04-26T02:05:59.304Z,4.47
2017-04-26T02:06:58.021Z,4.93
2017-04-26T02:07:57.165Z,3.82
2017-04-26T02:08:55.625Z,4.83
2017-04-26T02:09:54.036Z,5.58
2017-04-26T02:10:53.210Z,5.37
2017-04-26T02:11:51.649Z,4.65
2017-04-26T02:12:50.145Z,6.00
2017-04-26T02:13:48.555Z,4.72
2017-04-26T02:14:46.958Z,5.50
2017-04-26T02:15:45.478Z,5.35
2017-04-26T02:16:44.644Z,5.55
2017-04-26T02:17:43.009Z,5.23
2017-04-26T02:18:41.437Z,6.03
2017-04-26T02:19:39.831Z,5.72
2017-04-26T02:20:39.056Z,6.05
2017-04-26T02:21:38.241Z,5.87
2017-04-26T02:22:37.452Z,6.67
2017-04-26T02:23:35.859Z,5.07
2017-04-26T02:24:34.271Z,5.75
2017-04-26T02:25:33.397Z,4.75
2017-04-26T02:26:31.867Z,5.52
2017-04-26T02:27:30.404Z,6.28
2017-04-26T02:28:29.547Z,7.27
2017-04-26T02:29:29.011Z,7.17
2017-04-26T02:30:27.435Z,6.10
2017-04-26T02:31:25.871Z,6.30
2017-04-26T02:32:24.351Z,5.37
2017-04-26T02:33:22.688Z,5.78
2017-04-26T02:34:21.101Z,5.18
2017-04-26T02:35:19.551Z,5.50
2017-04-26T02:36:17.946Z,5.45
2017-04-26T02:37:16.408Z,6.47
2017-04-26T02:38:14.879Z,5.00
2017-04-26T02:39:14.032Z,4.18
2017-04-26T02:40:12.560Z,5.30
2017-04-26T02:41:11.016Z,3.97
2017-04-26T02:42:09.673Z,5.42
2017-04-26T02:43:08.434Z,5.62
2017-04-26T02:44:06.877Z,5.22
2017-04-26T02:45:05.678Z,5.27
2017-04-26T02:46:04.066Z,6.13
2017-04-26T02:47:02.434Z,5.47
2017-04-26T02:48:00.903Z,4.68
2017-04-26T02:48:59.332Z,5.50
2017-04-26T02:49:58.463Z,6.12
2017-04-26T02:50:56.872Z,7.13
2017-04-26T02:51:56.048Z,5.90
2017-04-26T02:52:54.461Z,6.85
2017-04-26T02:53:52.890Z,5.65
2017-04-26T02:54:51.379Z,5.78
2017-04-26T02:55:50.522Z,8.75
2017-04-26T02:56:48.905Z,4.63
2017-04-26T02:57:47.279Z,4.17
2017-04-26T02:58:45.721Z,4.17
2017-04-26T02:59:44.129Z,3.27
2017-04-26T03:00:42.630Z,2.95
2017-04-26T03:01:41.066Z,3.65
2017-04-26T03:02:39.433Z,3.00
2017-04-26T03:03:37.886Z,2.22
2017-04-26T03:04:36.281Z,2.28
2017-04-26T03:05:35.415Z,2.38
2017-04-26T03:06:33.846Z,2.23
2017-04-26T03:07:33.339Z,2.12
2017-04-26T03:08:32.508Z,2.67
2017-04-26T03:09:31.291Z,2.88
2017-04-26T03:10:30.411Z,2.17
2017-04-26T03:11:28.902Z,1.93
2017-04-26T03:12:27.680Z,1.95
2017-04-26T03:13:26.076Z,2.53
2017-04-26T03:14:24.482Z,2.40
2017-04-26T03:15:23.628Z,2.38
2017-04-26T03:16:22.098Z,2.80
2017-04-26T03:17:20.515Z,2.45
2017-04-26T03:18:19.012Z,2.02
2017-04-26T03:19:17.411Z,2.60
2017-04-26T03:20:16.034Z,2.92
2017-04-26T03:21:14.438Z,2.23
2017-04-26T03:22:12.995Z,2.65
2017-04-26T03:23:11.393Z,2.50
2017-04-26T03:24:09.786Z,2.18
2017-04-26T03:25:08.174Z,1.97
2017-04-26T03:26:06.671Z,2.47
2017-04-26T03:27:05.093Z,2.85
2017-04-26T03:28:05.159Z,2.67
2017-04-26T03:29:03.602Z,1.97
2017-04-26T03:30:01.984Z,2.75
2017-04-26T03:31:00.365Z,2.60
2017-04-26T03:31:58.784Z,2.60
2017-04-26T03:32:57.931Z,2.33
2017-04-26T03:33:56.336Z,2.28
2017-04-26T03:34:55.506Z,2.27
2017-04-26T03:35:53.886Z,2.17
2017-04-26T03:36:52.311Z,2.00
2017-04-26T03:37:50.965Z,2.50
2017-04-26T03:38:49.341Z,2.70
2017-04-26T03:39:48.029Z,2.40
2017-04-26T03:40:46.451Z,3.05
2017-04-26T03:41:44.940Z,2.50
2017-04-26T03:42:44.061Z,3.27
2017-04-26T03:43:42.434Z,3.10
2017-04-26T03:44:40.838Z,3.48
2017-04-26T03:45:39.234Z,3.78
2017-04-26T03:46:37.646Z,3.97
2017-04-26T03:47:36.086Z,3.72
2017-04-26T03:48:34.492Z,4.75
2017-04-26T03:49:32.949Z,4.73
2017-04-26T03:50:31.682Z,4.75
2017-04-26T03:51:30.819Z,4.38
2017-04-26T03:52:29.243Z,4.33
2017-04-26T03:53:27.660Z,5.40
2017-04-26T03:54:26.082Z,4.98
2017-04-26T03:55:24.535Z,4.97
2017-04-26T03:56:23.654Z,5.12
2017-04-26T03:57:23.289Z,3.62
2017-04-26T03:58:21.751Z,5.25
2017-04-26T03:59:20.173Z,4.70
2017-04-26T04:00:18.560Z,5.10
2017-04-26T04:01:16.995Z,4.42
2017-04-26T04:02:16.451Z,4.78
2017-04-26T04:03:14.846Z,3.62
2017-04-26T04:04:13.283Z,4.35
2017-04-26T04:05:12.074Z,4.20
2017-04-26T04:06:10.482Z,4.77
2017-04-26T04:07:09.607Z,3.82
2017-04-26T04:08:08.002Z,3.68
2017-04-26T04:09:06.407Z,3.50
2017-04-26T04:10:05.615Z,3.97
2017-04-26T04:11:04.074Z,4.30
2017-04-26T04:12:03.229Z,3.12
2017-04-26T04:13:01.705Z,3.90
2017-04-26T04:14:00.077Z,3.63
2017-04-26T04:14:58.451Z,3.75
2017-04-26T04:15:56.834Z,3.20
2017-04-26T04:17:00.507Z,3.32
2017-04-26T04:17:59.036Z,3.63
2017-04-26T04:18:57.453Z,3.88
2017-04-26T04:19:55.938Z,3.18
2017-04-26T04:20:55.049Z,3.47
2017-04-26T04:21:53.452Z,3.53
2017-04-26T04:22:51.831Z,2.92
2017-04-26T04:23:50.262Z,2.40
2017-04-26T04:24:49.034Z,2.17
2017-04-26T04:25:47.456Z,1.85
2017-04-26T04:26:45.954Z,1.82
2017-04-26T04:27:45.092Z,1.67
2017-04-26T04:28:43.533Z,1.75
2017-04-26T04:29:41.938Z,1.50
2017-04-26T04:30:40.312Z,2.05
2017-04-26T04:31:38.710Z,1.85
2017-04-26T04:32:37.860Z,1.70
2017-04-26T04:33:36.241Z,2.97
2017-04-26T04:34:34.702Z,3.38
2017-04-26T04:35:33.083Z,3.05
2017-04-26T04:36:31.535Z,2.18
2017-04-26T04:37:29.951Z,2.02
2017-04-26T04:38:29.179Z,1.90
2017-04-26T04:39:27.712Z,1.77
2017-04-26T04:40:26.131Z,1.88
2017-04-26T04:41:25.263Z,1.63
2017-04-26T04:42:23.668Z,2.38
2017-04-26T04:43:22.075Z,2.03
2017-04-26T04:44:20.539Z,2.60
2017-04-26T04:45:18.960Z,1.93
2017-04-26T04:46:17.353Z,2.02
2017-04-26T04:47:15.753Z,1.85
2017-04-26T04:48:14.139Z,2.77
2017-04-26T04:49:13.314Z,2.42
2017-04-26T04:50:12.203Z,2.40
2017-04-26T04:51:10.594Z,1.92
2017-04-26T04:52:08.984Z,2.25
2017-04-26T04:53:07.368Z,1.95
2017-04-26T04:54:05.759Z,2.07
2017-04-26T04:55:04.189Z,2.65
2017-04-26T04:56:02.678Z,2.55
2017-04-26T04:57:01.091Z,2.45
2017-04-26T04:58:00.544Z,2.78
2017-04-26T04:58:58.964Z,2.00
2017-04-26T04:59:58.104Z,1.62
2017-04-26T05:00:56.517Z,1.50
2017-04-26T05:01:55.734Z,1.48
2017-04-26T05:02:54.156Z,1.48
2017-04-26T05:03:52.620Z,2.60
2017-04-26T05:04:51.023Z,2.05
2017-04-26T05:05:50.165Z,1.92
2017-04-26T05:06:48.551Z,3.02
2017-04-26T05:07:46.960Z,2.65
2017-04-26T05:08:45.358Z,3.33
2017-04-26T05:09:43.783Z,3.73
2017-04-26T05:10:42.895Z,3.38
2017-04-26T05:11:41.302Z,3.30
2017-04-26T05:12:39.812Z,3.58
2017-04-26T05:13:38.258Z,3.03
2017-04-26T05:14:37.476Z,2.65
2017-04-26T05:15:35.928Z,2.68
2017-04-26T05:16:35.084Z,1.75
2017-04-26T05:17:33.493Z,3.37
2017-04-26T05:18:32.967Z,1.78
2017-04-26T05:19:32.090Z,1.45
2017-04-26T05:20:30.496Z,1.30
2017-04-26T05:21:28.924Z,1.38
2017-04-26T05:22:27.862Z,1.83
2017-04-26T05:23:26.295Z,1.78
2017-04-26T05:24:24.719Z,1.75
2017-04-26T05:25:24.356Z,1.78
2017-04-26T05:26:22.814Z,2.22
2017-04-26T05:27:21.189Z,1.60
2017-04-26T05:28:19.598Z,2.33
2017-04-26T05:29:18.731Z,2.28
2017-04-26T05:30:17.255Z,2.47
2017-04-26T05:31:15.633Z,1.42
2017-04-26T05:32:14.100Z,2.00
2017-04-26T05:33:12.494Z,3.25
2017-04-26T05:34:11.653Z,2.40
2017-04-26T05:35:10.103Z,2.42
2017-04-26T05:36:08.442Z,4.08
2017-04-26T05:37:06.806Z,3.92
2017-04-26T05:38:05.296Z,3.15
2017-04-26T05:39:04.327Z,2.13
2017-04-26T05:40:02.769Z,2.40
2017-04-26T05:41:01.149Z,2.02
2017-04-26T05:41:59.556Z,2.13
2017-04-26T05:42:58.700Z,1.77
2017-04-26T05:43:58.569Z,2.00
2017-04-26T05:44:56.956Z,2.55
2017-04-26T05:45:55.371Z,2.37
2017-04-26T05:46:53.800Z,1.95
2017-04-26T05:47:52.536Z,1.70
2017-04-26T05:48:51.657Z,1.80
2017-04-26T05:49:50.074Z,2.13
2017-04-26T05:50:48.438Z,1.65
2017-04-26T05:51:46.862Z,2.02
2017-04-26T05:52:45.250Z,2.37
2017-04-26T05:53:43.713Z,1.80
2017-04-26T05:54:42.120Z,1.80
2017-04-26T05:55:41.303Z,2.22
2017-04-26T05:56:39.738Z,1.80
2017-04-26T05:57:38.152Z,1.95
2017-04-26T05:58:36.555Z,1.87
2017-04-26T05:59:35.166Z,2.10
2017-04-26T06:00:33.634Z,1.93
2017-04-26T06:01:32.054Z,2.25
2017-04-26T06:02:30.412Z,2.67
2017-04-26T06:03:28.890Z,2.12
2017-04-26T06:04:28.021Z,2.25
2017-04-26T06:05:26.391Z,2.52
2017-04-26T06:06:25.546Z,1.80
2017-04-26T06:07:23.965Z,2.00
2017-04-26T06:08:22.660Z,1.63
2017-04-26T06:09:21.112Z,1.80
2017-04-26T06:10:19.481Z,1.75
2017-04-26T06:11:17.895Z,2.00
2017-04-26T06:12:16.290Z,2.12
2017-04-26T06:13:14.991Z,2.48
2017-04-26T06:14:13.431Z,3.92
2017-04-26T06:15:11.856Z,2.78
2017-04-26T06:16:10.990Z,2.33
2017-04-26T06:17:09.381Z,2.52
2017-04-26T06:18:07.790Z,2.77
2017-04-26T06:19:06.896Z,2.75
2017-04-26T06:20:05.990Z,3.08
2017-04-26T06:21:05.455Z,2.88
2017-04-26T06:22:04.600Z,3.23
2017-04-26T06:23:03.042Z,2.65
2017-04-26T06:24:01.489Z,2.98
2017-04-26T06:24:59.926Z,2.77
2017-04-26T06:25:58.342Z,3.27
2017-04-26T06:26:56.728Z,2.60
2017-04-26T06:27:55.148Z,3.28
2017-04-26T06:28:54.320Z,3.45
2017-04-26T06:29:52.717Z,4.05
2017-04-26T06:30:51.163Z,3.37
2017-04-26T06:31:49.578Z,3.17
2017-04-26T06:32:48.059Z,5.02
2017-04-26T06:33:46.437Z,3.92
2017-04-26T06:34:44.837Z,2.97
2017-04-26T06:35:43.229Z,2.70
2017-04-26T06:36:42.334Z,2.90
2017-04-26T06:37:40.747Z,2.85
2017-04-26T06:38:39.157Z,3.98
2017-04-26T06:39:38.320Z,3.87
2017-04-26T06:40:37.562Z,4.73
2017-04-26T06:41:35.946Z,3.45
2017-04-26T06:42:34.359Z,1.67
2017-04-26T06:43:33.584Z,3.40
2017-04-26T06:44:32.000Z,3.85
2017-04-26T06:45:30.401Z,4.22
2017-04-26T06:46:28.801Z,5.27
2017-04-26T06:47:27.216Z,4.05
2017-04-26T06:48:25.662Z,3.58
2017-04-26T06:49:24.207Z,2.90
2017-04-26T06:50:22.664Z,3.15
2017-04-26T06:51:21.035Z,2.88
2017-04-26T06:52:19.401Z,2.87
2017-04-26T06:53:17.799Z,5.22
2017-04-26T06:54:16.166Z,4.25
2017-04-26T06:55:14.645Z,4.92
2017-04-26T06:56:13.383Z,6.93
2017-04-26T06:57:11.818Z,4.30
2017-04-26T06:58:10.188Z,4.95
2017-04-26T06:59:08.641Z,4.63
2017-04-26T07:00:07.202Z,9.10
2017-04-26T07:01:05.666Z,2.92
2017-04-26T07:02:04.104Z,2.37
2017-04-26T07:03:06.269Z,2.03
2017-04-26T07:04:05.180Z,2.10
2017-04-26T07:05:03.606Z,1.88
2017-04-26T07:06:02.397Z,2.43
2017-04-26T07:07:01.150Z,2.30
2017-04-26T07:08:00.850Z,2.25
2017-04-26T07:09:00.070Z,2.27
2017-04-26T07:09:58.473Z,2.73
2017-04-26T07:10:56.900Z,2.07
2017-04-26T07:11:55.283Z,2.20
2017-04-26T07:12:54.190Z,2.42
2017-04-26T07:13:52.614Z,2.10
2017-04-26T07:14:50.995Z,2.02
2017-04-26T07:15:49.392Z,2.22
2017-04-26T07:16:47.794Z,2.43
2017-04-26T07:17:46.934Z,5.03
2017-04-26T07:18:45.375Z,3.73
2017-04-26T07:19:43.882Z,7.00
2017-04-26T07:20:42.314Z,9.57
2017-04-26T07:21:41.115Z,10.78
2017-04-26T07:22:39.523Z,8.97
2017-04-26T07:23:37.939Z,25.68
2017-04-26T07:24:36.414Z,13.12
2017-04-26T07:25:35.173Z,6.87
2017-04-26T07:26:33.613Z,5.90
2017-04-26T07:27:32.316Z,5.62
2017-04-26T07:28:31.512Z,6.88
2017-04-26T07:29:29.954Z,10.63
2017-04-26T07:30:29.077Z,8.05
2017-04-26T07:31:27.546Z,8.58
2017-04-26T07:32:26.330Z,6.27
2017-04-26T07:33:24.740Z,5.38
2017-04-26T07:34:23.871Z,7.10
2017-04-26T07:35:22.269Z,6.05
2017-04-26T07:36:20.768Z,4.57
2017-04-26T07:37:19.202Z,8.40
2017-04-26T07:38:17.590Z,6.15
2017-04-26T07:39:16.061Z,8.05
2017-04-26T07:40:14.485Z,6.95
2017-04-26T07:41:13.643Z,5.67
2017-04-26T07:42:12.026Z,7.00
2017-04-26T07:43:10.793Z,6.43
2017-04-26T07:44:09.847Z,4.33
2017-04-26T07:45:08.214Z,6.38
2017-04-26T07:46:06.645Z,7.18
2017-04-26T07:47:05.039Z,11.68
2017-04-26T07:48:03.443Z,8.05
2017-04-26T07:49:01.884Z,11.70
2017-04-26T07:50:00.268Z,11.48
2017-04-26T07:50:58.652Z,10.90
2017-04-26T07:51:57.081Z,8.50
2017-04-26T07:52:55.502Z,5.73
2017-04-26T07:53:53.942Z,9.80
2017-04-26T07:54:52.754Z,13.32
2017-04-26T07:55:51.133Z,10.92
2017-04-26T07:56:50.307Z,7.72
2017-04-26T07:57:48.706Z,12.67
2017-04-26T07:58:47.141Z,9.10
2017-04-26T07:59:45.543Z,8.83
2017-04-26T08:00:44.065Z,6.88
2017-04-26T08:01:42.526Z,6.90
2017-04-26T08:02:40.923Z,9.43
2017-04-26T08:03:39.293Z,6.00
2017-04-26T08:04:37.669Z,9.25
2017-04-26T08:05:36.801Z,6.48
2017-04-26T08:06:35.245Z,7.50
2017-04-26T08:07:33.609Z,7.78
2017-04-26T08:08:32.777Z,6.72
2017-04-26T08:09:31.189Z,5.10
2017-04-26T08:10:29.588Z,6.43
2017-04-26T08:11:28.013Z,4.92
2017-04-26T08:12:26.424Z,6.57
2017-04-26T08:13:25.579Z,7.58
2017-04-26T08:14:23.955Z,5.87
2017-04-26T08:15:22.382Z,6.20
2017-04-26T08:16:20.799Z,5.47
2017-04-26T08:17:19.203Z,5.83
2017-04-26T08:18:17.660Z,6.12
2017-04-26T08:19:16.036Z,6.02
2017-04-26T08:20:14.500Z,5.17
2017-04-26T08:21:12.966Z,5.60
2017-04-26T08:22:11.348Z,5.93
2017-04-26T08:23:10.218Z,5.30
2017-04-26T08:24:08.617Z,5.00
2017-04-26T08:25:07.075Z,4.67
2017-04-26T08:26:05.528Z,4.60
2017-04-26T08:27:03.951Z,4.62
2017-04-26T08:28:02.348Z,4.98
2017-04-26T08:29:00.732Z,4.18
2017-04-26T08:29:59.884Z,4.38
2017-04-26T08:30:58.329Z,4.17
2017-04-26T08:31:56.715Z,4.07
2017-04-26T08:32:55.880Z,4.15
2017-04-26T08:33:55.054Z,4.35
2017-04-26T08:34:53.562Z,4.90
2017-04-26T08:35:51.976Z,4.02
2017-04-26T08:36:50.418Z,4.87
2017-04-26T08:37:48.794Z,4.60
2017-04-26T08:38:47.202Z,4.48
2017-04-26T08:39:45.585Z,4.38
2017-04-26T08:40:44.744Z,3.98
2017-04-26T08:41:43.230Z,4.17
2017-04-26T08:42:41.648Z,4.58
2017-04-26T08:43:40.024Z,3.65
2017-04-26T08:44:38.406Z,3.17
2017-04-26T08:45:36.803Z,2.85
2017-04-26T08:46:35.217Z,3.00
2017-04-26T08:47:33.674Z,3.87
2017-04-26T08:48:32.151Z,3.33
2017-04-26T08:49:30.581Z,3.30
2017-04-26T08:50:29.172Z,2.93
2017-04-26T08:51:27.580Z,3.73
2017-04-26T08:52:26.018Z,3.63
2017-04-26T08:53:24.474Z,3.80
2017-04-26T08:54:22.874Z,3.80
2017-04-26T08:55:21.277Z,5.10
2017-04-26T08:56:19.676Z,5.90
2017-04-26T08:57:18.507Z,4.52
2017-04-26T08:58:16.961Z,3.82
2017-04-26T08:59:15.698Z,4.20
2017-04-26T09:00:14.250Z,3.82
2017-04-26T09:01:12.732Z,3.55
2017-04-26T09:02:11.214Z,4.28
2017-04-26T09:03:10.398Z,3.77
2017-04-26T09:04:08.828Z,3.82
2017-04-26T09:05:07.656Z,7.33
2017-04-26T09:06:06.132Z,5.03
2017-04-26T09:07:04.581Z,3.83
2017-04-26T09:08:02.946Z,6.18
2017-04-26T09:09:01.396Z,5.28
2017-04-26T09:09:59.812Z,5.65
2017-04-26T09:10:58.259Z,4.47
2017-04-26T09:11:56.674Z,4.90
2017-04-26T09:12:55.077Z,3.28
2017-04-26T09:13:53.530Z,2.62
2017-04-26T09:14:51.980Z,3.18
2017-04-26T09:15:51.140Z,2.95
2017-04-26T09:16:49.574Z,4.03
2017-04-26T09:17:48.027Z,3.50
2017-04-26T09:18:46.440Z,3.67
2017-04-26T09:19:44.895Z,4.45
2017-04-26T09:20:43.293Z,4.42
2017-04-26T09:21:41.724Z,3.92
2017-04-26T09:22:40.104Z,3.23
2017-04-26T09:23:38.481Z,3.40
2017-04-26T09:24:36.869Z,4.10
2017-04-26T09:25:35.283Z,4.25
2017-04-26T09:26:33.692Z,3.70
2017-04-26T09:27:32.523Z,4.33
2017-04-26T09:28:30.952Z,4.65
2017-04-26T09:29:29.639Z,4.90
2017-04-26T09:30:28.773Z,4.92
2017-04-26T09:31:27.194Z,5.22
2017-04-26T09:32:26.315Z,5.42
2017-04-26T09:33:24.759Z,4.47
2017-04-26T09:34:23.889Z,5.92
2017-04-26T09:35:22.304Z,4.45
2017-04-26T09:36:20.735Z,4.90
2017-04-26T09:37:19.103Z,4.47
2017-04-26T09:38:17.517Z,4.73
2017-04-26T09:39:15.953Z,4.75
2017-04-26T09:40:14.377Z,4.80
2017-04-26T09:41:12.797Z,4.08
2017-04-26T09:42:11.241Z,3.97
2017-04-26T09:43:09.676Z,4.32
2017-04-26T09:44:08.781Z,3.65
2017-04-26T09:45:07.135Z,3.60
2017-04-26T09:46:05.531Z,3.77
2017-04-26T09:47:03.982Z,5.10
2017-04-26T09:48:02.451Z,4.67
2017-04-26T09:49:00.847Z,4.00
2017-04-26T09:49:59.227Z,4.78
2017-04-26T09:50:58.346Z,4.90
2017-04-26T09:51:56.745Z,4.25
2017-04-26T09:52:55.164Z,4.13
2017-04-26T09:53:53.559Z,3.40
2017-04-26T09:54:52.696Z,3.00
2017-04-26T09:55:51.103Z,4.07
2017-04-26T09:56:49.550Z,4.35
2017-04-26T09:57:47.955Z,3.72
2017-04-26T09:58:47.164Z,4.18
2017-04-26T09:59:45.563Z,4.58
2017-04-26T10:00:43.971Z,4.12
2017-04-26T10:01:42.374Z,3.87
2017-04-26T10:02:40.798Z,3.93
2017-04-26T10:03:39.184Z,3.58
2017-04-26T10:04:38.769Z,3.62
2017-04-26T10:05:37.182Z,4.00
2017-04-26T10:06:35.598Z,3.70
2017-04-26T10:07:33.965Z,3.33
2017-04-26T10:08:32.459Z,4.78
2017-04-26T10:09:31.634Z,4.88
2017-04-26T10:10:30.117Z,5.13
2017-04-26T10:11:28.479Z,5.27
2017-04-26T10:12:26.864Z,5.78
2017-04-26T10:13:26.039Z,4.72
2017-04-26T10:14:24.488Z,4.50
2017-04-26T10:15:22.893Z,3.95
2017-04-26T10:16:22.070Z,7.70
2017-04-26T10:17:21.193Z,6.02
2017-04-26T10:18:19.590Z,4.72
2017-04-26T10:19:17.982Z,7.25
2017-04-26T10:20:16.363Z,17.50
2017-04-26T10:21:15.530Z,6.55
2017-04-26T10:22:13.994Z,8.37
2017-04-26T10:23:12.461Z,11.92
2017-04-26T10:24:10.899Z,7.45
2017-04-26T10:25:09.297Z,4.82
2017-04-26T10:26:07.729Z,5.60
2017-04-26T10:27:06.113Z,6.15
2017-04-26T10:28:04.532Z,6.03
2017-04-26T10:29:02.932Z,5.08
2017-04-26T10:30:01.332Z,5.97
2017-04-26T10:30:59.702Z,6.83
2017-04-26T10:31:58.123Z,5.00
2017-04-26T10:32:57.256Z,6.05
2017-04-26T10:33:55.670Z,5.07
2017-04-26T10:34:54.767Z,6.75
2017-04-26T10:35:53.958Z,5.58
2017-04-26T10:36:52.362Z,6.40
2017-04-26T10:37:50.747Z,5.82
2017-04-26T10:38:49.194Z,5.12
2017-04-26T10:39:47.607Z,5.93
2017-04-26T10:40:46.014Z,3.88
2017-04-26T10:41:44.480Z,5.75
2017-04-26T10:42:42.922Z,5.90
2017-04-26T10:43:41.393Z,5.00
2017-04-26T10:44:39.882Z,5.40
2017-04-26T10:45:39.043Z,5.80
2017-04-26T10:46:37.487Z,6.58
2017-04-26T10:47:36.346Z,5.38
2017-04-26T10:48:34.719Z,5.93
2017-04-26T10:49:33.109Z,5.95
2017-04-26T10:50:31.570Z,6.03
2017-04-26T10:51:29.959Z,6.12
2017-04-26T10:52:28.354Z,6.37
2017-04-26T10:53:27.544Z,6.90
2017-04-26T10:54:26.786Z,6.77
2017-04-26T10:55:25.203Z,6.67
2017-04-26T10:56:23.621Z,7.25
2017-04-26T10:57:22.040Z,6.15
2017-04-26T10:58:21.196Z,5.90
2017-04-26T10:59:20.371Z,7.93
2017-04-26T11:00:18.833Z,6.72
2017-04-26T11:01:17.305Z,5.75
2017-04-26T11:02:15.708Z,5.98
2017-04-26T11:03:14.165Z,6.55
2017-04-26T11:04:12.550Z,7.30
2017-04-26T11:05:11.021Z,6.40
2017-04-26T11:06:09.407Z,7.20
2017-04-26T11:07:08.547Z,6.65
2017-04-26T11:08:07.038Z,6.95
2017-04-26T11:09:05.520Z,6.83
2017-04-26T11:10:04.001Z,6.90
2017-04-26T11:11:03.315Z,6.68
2017-04-26T11:12:01.701Z,7.97
2017-04-26T11:13:00.085Z,7.98
2017-04-26T11:13:58.487Z,8.03
2017-04-26T11:14:57.659Z,8.63
2017-04-26T11:15:56.149Z,8.17
2017-04-26T11:16:54.591Z,7.73
2017-04-26T11:17:53.022Z,8.82
2017-04-26T11:18:51.419Z,9.65
2017-04-26T11:19:50.603Z,9.22
2017-04-26T11:20:49.000Z,8.35
2017-04-26T11:21:47.437Z,9.00
2017-04-26T11:22:48.015Z,10.13
2017-04-26T11:23:44.257Z,8.77
2017-04-26T11:24:42.607Z,8.23
2017-04-26T11:25:41.012Z,9.65
2017-04-26T11:26:39.446Z,8.18
2017-04-26T11:27:38.585Z,9.90
2017-04-26T11:28:37.739Z,9.42
2017-04-26T11:29:36.152Z,9.65
2017-04-26T11:30:34.566Z,8.87
2017-04-26T11:31:33.029Z,10.72
2017-04-26T11:32:32.276Z,9.12
2017-04-26T11:33:31.748Z,9.83
2017-04-26T11:34:30.141Z,9.67
2017-04-26T11:35:28.553Z,9.68
2017-04-26T11:36:26.974Z,9.77
2017-04-26T11:37:26.100Z,10.65
2017-04-26T11:38:24.556Z,10.73
2017-04-26T11:39:22.981Z,9.53
2017-04-26T11:40:21.415Z,10.20
2017-04-26T11:41:20.551Z,9.67
2017-04-26T11:42:18.958Z,10.87
2017-04-26T11:43:18.156Z,11.75
2017-04-26T11:44:18.935Z,12.62
2017-04-26T11:45:17.682Z,15.50
2017-04-26T11:46:16.071Z,16.52
2017-04-26T11:47:14.457Z,14.03
2017-04-26T11:48:12.864Z,13.03
2017-04-26T11:49:11.993Z,11.92
2017-04-26T11:50:10.420Z,11.90
2017-04-26T11:51:09.509Z,13.00
2017-04-26T11:52:08.635Z,12.85
2017-04-26T11:53:07.069Z,13.02
2017-04-26T11:54:05.500Z,11.72
2017-04-26T11:55:03.973Z,13.25
2017-04-26T11:56:02.356Z,12.77
2017-04-26T11:57:00.777Z,12.65
2017-04-26T11:57:59.174Z,11.50
2017-04-26T11:58:57.569Z,12.97
2017-04-26T11:59:56.093Z,11.53
2017-04-26T12:00:55.238Z,11.27
2017-04-26T12:01:54.408Z,10.88
2017-04-26T12:02:52.823Z,12.22
2017-04-26T12:03:51.212Z,11.07
2017-04-26T12:04:49.877Z,13.12
2017-04-26T12:05:48.308Z,12.12
2017-04-26T12:06:47.444Z,12.42
2017-04-26T12:07:45.907Z,11.72
2017-04-26T12:08:44.299Z,10.55
2017-04-26T12:09:42.656Z,9.08
2017-04-26T12:10:41.056Z,10.23
2017-04-26T12:11:39.514Z,12.95
2017-04-26T12:12:38.238Z,12.32
2017-04-26T12:13:36.671Z,12.32
2017-04-26T12:14:35.067Z,11.20
2017-04-26T12:15:33.449Z,11.47
2017-04-26T12:16:31.871Z,12.82
2017-04-26T12:17:30.349Z,9.00
2017-04-26T12:18:28.727Z,11.80
2017-04-26T12:19:27.872Z,9.63
2017-04-26T12:20:26.278Z,10.43
2017-04-26T12:21:24.663Z,9.60
2017-04-26T12:22:23.813Z,10.72
2017-04-26T12:23:22.202Z,9.60
2017-04-26T12:24:20.595Z,9.95
2017-04-26T12:25:19.029Z,9.38
2017-04-26T12:26:17.453Z,10.30
2017-04-26T12:27:15.882Z,10.43
2017-04-26T12:28:15.059Z,10.68
2017-04-26T12:29:13.510Z,10.57
2017-04-26T12:30:11.918Z,12.00
2017-04-26T12:31:11.048Z,11.92
2017-04-26T12:32:09.458Z,11.17
2017-04-26T12:33:07.885Z,11.45
2017-04-26T12:34:06.304Z,11.02
2017-04-26T12:35:05.499Z,10.22
2017-04-26T12:36:04.671Z,10.52
2017-04-26T12:37:03.094Z,8.77
2017-04-26T12:38:01.536Z,8.30
2017-04-26T12:39:00.720Z,10.47
2017-04-26T12:39:59.125Z,9.47
2017-04-26T12:40:57.855Z,9.78
2017-04-26T12:41:57.017Z,9.98
2017-04-26T12:42:55.393Z,10.30
2017-04-26T12:43:53.884Z,11.80
2017-04-26T12:44:53.061Z,12.87
2017-04-26T12:45:51.614Z,13.60
2017-04-26T12:46:50.501Z,20.15
2017-04-26T12:47:48.926Z,11.10
2017-04-26T12:48:47.363Z,10.35
2017-04-26T12:49:46.566Z,11.22
2017-04-26T12:50:45.054Z,12.33
2017-04-26T12:51:43.522Z,11.78
2017-04-26T12:52:41.966Z,8.93
2017-04-26T12:53:40.415Z,10.48
2017-04-26T12:54:39.682Z,10.47
2017-04-26T12:55:38.086Z,8.82
2017-04-26T12:56:37.533Z,9.97
2017-04-26T12:57:36.011Z,13.25